createdAt,value
2022-11-26T00:00:42.226Z,29.65
2022-11-26T00:03:27.346Z,27.52
2022-11-26T00:05:57.405Z,25.83
2022-11-26T00:08:35.719Z,27.85
2022-11-26T00:11:03.147Z,28.73
2022-11-26T00:13:31.468Z,24.83
2022-11-26T00:15:58.645Z,28.85
2022-11-26T00:18:28.971Z,27.00
2022-11-26T00:21:01.269Z,27.00
2022-11-26T00:23:29.011Z,28.63
2022-11-26T00:25:59.357Z,27.10
2022-11-26T00:28:30.054Z,26.30
2022-11-26T00:30:59.789Z,28.08
2022-11-26T00:33:28.255Z,27.73
2022-11-26T00:36:02.473Z,25.63
2022-11-26T00:38:30.748Z,25.40
2022-11-26T00:40:58.858Z,27.27
2022-11-26T00:43:26.412Z,26.80
2022-11-26T00:45:53.611Z,25.50
2022-11-26T00:48:21.094Z,27.23
2022-11-26T00:50:51.085Z,25.42
2022-11-26T00:53:22.510Z,25.45
2022-11-26T00:55:50.823Z,28.13
2022-11-26T00:58:30.173Z,27.25
2022-11-26T01:00:59.362Z,25.08
2022-11-26T01:03:27.252Z,28.90
2022-11-26T01:05:58.109Z,24.98
2022-11-26T01:08:33.035Z,27.02
2022-11-26T01:11:02.048Z,27.10
2022-11-26T01:13:30.625Z,25.52
2022-11-26T01:16:00.001Z,28.02
2022-11-26T01:18:28.772Z,28.42
2022-11-26T01:20:55.920Z,26.20
2022-11-26T01:23:23.416Z,26.60
2022-11-26T01:25:50.624Z,27.15
2022-11-26T01:28:19.815Z,26.60
2022-11-26T01:30:47.226Z,28.05
2022-11-26T01:33:14.817Z,28.15
2022-11-26T01:35:42.052Z,26.70
2022-11-26T01:38:15.660Z,27.23
2022-11-26T01:41:16.913Z,27.67
2022-11-26T01:43:44.498Z,25.52
2022-11-26T01:46:22.438Z,27.63
2022-11-26T01:48:50.554Z,28.75
2022-11-26T01:51:25.113Z,27.92
2022-11-26T01:53:59.756Z,29.10
2022-11-26T01:56:39.190Z,27.90
2022-11-26T01:59:12.697Z,28.23
2022-11-26T02:01:40.210Z,25.77
2022-11-26T02:04:27.745Z,28.58
2022-11-26T02:06:56.465Z,28.33
2022-11-26T02:09:26.175Z,27.05
2022-11-26T02:11:53.664Z,27.42
2022-11-26T02:14:28.630Z,29.88
2022-11-26T02:17:18.067Z,28.58
2022-11-26T02:20:19.235Z,26.92
2022-11-26T02:22:49.545Z,27.85
2022-11-26T02:25:41.960Z,28.65
2022-11-26T02:28:55.908Z,29.42
2022-11-26T02:31:53.453Z,27.67
2022-11-26T02:34:44.142Z,27.73
2022-11-26T02:37:20.018Z,28.95
2022-11-26T02:39:47.367Z,25.88
2022-11-26T02:42:32.644Z,29.85
2022-11-26T02:45:08.404Z,27.83
2022-11-26T02:47:39.993Z,28.07
2022-11-26T02:50:11.819Z,28.20
2022-11-26T02:52:42.694Z,26.88
2022-11-26T02:55:13.126Z,29.65
2022-11-26T02:57:52.381Z,26.52
2022-11-26T03:00:20.421Z,25.10
2022-11-26T03:03:02.070Z,29.55
2022-11-26T03:05:33.961Z,24.65
2022-11-26T03:08:02.864Z,27.50
2022-11-26T03:10:31.607Z,24.95
2022-11-26T03:12:59.664Z,27.60
2022-11-26T03:15:27.518Z,27.27
2022-11-26T03:17:55.086Z,26.90
2022-11-26T03:20:22.257Z,26.50
2022-11-26T03:22:49.829Z,26.38
2022-11-26T03:25:17.116Z,26.80
2022-11-26T03:27:44.926Z,26.88
2022-11-26T03:30:12.541Z,25.25
2022-11-26T03:32:40.052Z,26.17
2022-11-26T03:35:07.629Z,26.38
2022-11-26T03:37:35.542Z,26.90
2022-11-26T03:40:02.824Z,25.95
2022-11-26T03:42:30.298Z,25.27
2022-11-26T03:44:57.541Z,22.80
2022-11-26T03:47:25.292Z,26.08
2022-11-26T03:49:52.410Z,26.92
2022-11-26T03:52:20.575Z,27.17
2022-11-26T03:54:47.793Z,24.05
2022-11-26T03:57:15.251Z,26.73
2022-11-26T03:59:42.472Z,24.60
2022-11-26T04:02:09.937Z,24.63
2022-11-26T04:04:37.486Z,23.95
2022-11-26T04:07:05.285Z,24.63
2022-11-26T04:09:32.679Z,26.00
2022-11-26T04:12:00.248Z,24.00
2022-11-26T04:14:27.570Z,24.13
2022-11-26T04:16:55.057Z,24.23
2022-11-26T04:19:22.264Z,25.60
2022-11-26T04:21:49.805Z,24.33
2022-11-26T04:24:16.950Z,25.05
2022-11-26T04:26:44.452Z,22.92
2022-11-26T04:29:11.604Z,23.10
2022-11-26T04:31:39.211Z,24.60
2022-11-26T04:34:06.442Z,23.85
2022-11-26T04:36:33.980Z,22.73
2022-11-26T04:39:01.194Z,23.98
2022-11-26T04:41:28.752Z,24.20
2022-11-26T04:43:56.080Z,23.23
2022-11-26T04:46:23.706Z,25.40
2022-11-26T04:48:50.953Z,26.15
2022-11-26T04:51:18.480Z,25.70
2022-11-26T04:53:45.762Z,21.80
2022-11-26T04:56:13.191Z,24.40
2022-11-26T04:58:40.590Z,24.92
2022-11-26T05:01:08.225Z,25.13
2022-11-26T05:03:36.792Z,25.50
2022-11-26T05:06:04.592Z,23.60
2022-11-26T05:08:31.817Z,23.90
2022-11-26T05:11:01.400Z,22.17
2022-11-26T05:13:28.734Z,22.67
2022-11-26T05:15:56.177Z,23.83
2022-11-26T05:18:23.365Z,25.13
2022-11-26T05:20:50.837Z,23.48
2022-11-26T05:23:18.175Z,21.75
2022-11-26T05:25:45.653Z,23.15
2022-11-26T05:28:12.808Z,23.13
2022-11-26T05:30:40.672Z,22.85
2022-11-26T05:33:08.421Z,22.67
2022-11-26T05:35:37.401Z,22.80
2022-11-26T05:38:04.614Z,22.48
2022-11-26T05:40:32.370Z,24.33
2022-11-26T05:42:59.500Z,20.65
2022-11-26T05:45:27.339Z,22.35
2022-11-26T05:47:54.523Z,22.65
2022-11-26T05:50:22.032Z,22.75
2022-11-26T05:52:53.337Z,21.17
2022-11-26T05:55:21.005Z,21.00
2022-11-26T05:57:48.143Z,23.75
2022-11-26T06:00:16.020Z,23.17
2022-11-26T06:02:43.611Z,23.63
2022-11-26T06:05:11.932Z,23.05
2022-11-26T06:07:43.283Z,28.45
2022-11-26T06:10:13.663Z,29.15
2022-11-26T06:12:40.904Z,29.13
2022-11-26T06:15:08.926Z,31.35
2022-11-26T06:17:36.077Z,32.15
2022-11-26T06:20:04.747Z,31.15
2022-11-26T06:22:40.109Z,30.58
2022-11-26T06:25:09.247Z,29.67
2022-11-26T06:27:37.302Z,28.95
2022-11-26T06:30:05.799Z,31.10
2022-11-26T06:32:33.535Z,31.42
2022-11-26T06:35:01.000Z,29.40
2022-11-26T06:37:28.294Z,28.83
2022-11-26T06:39:55.700Z,29.33
2022-11-26T06:42:23.374Z,28.38
2022-11-26T06:44:51.163Z,28.80
2022-11-26T06:47:18.491Z,29.25
2022-11-26T06:49:46.001Z,31.40
2022-11-26T06:52:13.761Z,30.88
2022-11-26T06:54:41.384Z,28.67
2022-11-26T06:57:08.590Z,39.28
2022-11-26T06:59:36.186Z,43.60
2022-11-26T07:02:03.340Z,35.70
2022-11-26T07:04:30.978Z,32.40
2022-11-26T07:06:58.324Z,42.05
2022-11-26T07:09:25.777Z,39.65
2022-11-26T07:11:52.969Z,43.50
2022-11-26T07:14:22.431Z,41.00
2022-11-26T07:16:49.659Z,35.97
2022-11-26T07:19:17.191Z,40.13
2022-11-26T07:21:45.124Z,39.00
2022-11-26T07:24:12.619Z,41.03
2022-11-26T07:26:39.801Z,36.35
2022-11-26T07:29:07.314Z,36.97
2022-11-26T07:31:34.572Z,34.88
2022-11-26T07:34:02.276Z,32.40
2022-11-26T07:36:31.025Z,35.05
2022-11-26T07:39:00.470Z,37.58
2022-11-26T07:41:28.944Z,31.98
2022-11-26T07:43:56.597Z,30.10
2022-11-26T07:46:25.707Z,28.88
2022-11-26T07:48:54.416Z,27.20
2022-11-26T07:51:27.994Z,30.52
2022-11-26T07:53:56.962Z,30.73
2022-11-26T07:56:24.440Z,30.25
2022-11-26T07:58:52.564Z,31.48
2022-11-26T08:01:22.848Z,32.67
2022-11-26T08:03:51.459Z,33.40
2022-11-26T08:06:21.996Z,28.00
2022-11-26T08:08:49.880Z,29.63
2022-11-26T08:11:22.955Z,29.30
2022-11-26T08:13:54.200Z,29.52
2022-11-26T08:16:21.654Z,29.60
2022-11-26T08:18:53.031Z,31.20
2022-11-26T08:21:20.383Z,26.75
2022-11-26T08:23:48.070Z,25.05
2022-11-26T08:26:30.662Z,25.98
2022-11-26T08:29:01.317Z,25.77
2022-11-26T08:31:28.748Z,29.38
2022-11-26T08:33:58.134Z,29.02
2022-11-26T08:36:26.854Z,28.52
2022-11-26T08:38:54.583Z,27.90
2022-11-26T08:41:22.140Z,27.17
2022-11-26T08:44:07.025Z,26.33
2022-11-26T08:46:40.610Z,28.27
2022-11-26T08:49:12.196Z,26.20
2022-11-26T08:51:39.572Z,28.58
2022-11-26T08:54:07.357Z,30.13
2022-11-26T08:56:34.762Z,26.10
2022-11-26T08:59:03.038Z,27.13
2022-11-26T09:01:32.638Z,25.98
2022-11-26T09:04:02.250Z,23.30
2022-11-26T09:06:32.879Z,24.38
2022-11-26T09:09:13.401Z,29.70
2022-11-26T09:11:48.120Z,27.92
2022-11-26T09:14:18.592Z,27.48
2022-11-26T09:16:45.985Z,29.98
2022-11-26T09:19:15.007Z,28.73
2022-11-26T09:21:42.695Z,26.42
2022-11-26T09:24:10.307Z,24.92
2022-11-26T09:26:37.767Z,27.35
2022-11-26T09:29:05.726Z,26.23
2022-11-26T09:31:33.370Z,28.02
2022-11-26T09:34:02.686Z,27.15
2022-11-26T09:36:29.958Z,28.10
2022-11-26T09:38:58.797Z,32.17
2022-11-26T09:41:51.657Z,29.98
2022-11-26T09:44:42.122Z,28.70
2022-11-26T09:47:22.387Z,31.40
2022-11-26T09:49:52.866Z,32.53
2022-11-26T09:52:22.497Z,34.22
2022-11-26T09:54:55.119Z,33.00
2022-11-26T09:57:57.382Z,31.02
2022-11-26T10:00:30.359Z,33.40
2022-11-26T10:02:58.726Z,31.33
2022-11-26T10:05:42.402Z,34.42
2022-11-26T10:08:24.653Z,27.27
2022-11-26T10:10:57.024Z,27.48
2022-11-26T10:14:06.001Z,31.00
2022-11-26T10:16:42.388Z,31.15
2022-11-26T10:19:44.118Z,23.37
2022-11-26T10:22:22.853Z,30.05
2022-11-26T10:24:51.319Z,31.67
2022-11-26T10:27:21.114Z,31.25
2022-11-26T10:30:02.053Z,29.48
2022-11-26T10:32:39.728Z,30.77
2022-11-26T10:35:18.988Z,27.23
2022-11-26T10:37:46.632Z,29.20
2022-11-26T10:40:31.465Z,29.73
2022-11-26T10:43:08.624Z,31.58
2022-11-26T10:45:41.994Z,27.48
2022-11-26T10:48:26.450Z,25.15
2022-11-26T10:51:05.006Z,27.42
2022-11-26T10:53:53.967Z,26.75
2022-11-26T10:56:25.017Z,25.48
2022-11-26T10:58:54.017Z,26.30
2022-11-26T11:01:21.455Z,25.02
2022-11-26T11:04:07.872Z,24.33
2022-11-26T11:06:41.593Z,27.25
2022-11-26T11:09:25.784Z,27.55
2022-11-26T11:12:13.691Z,28.45
2022-11-26T11:14:43.381Z,31.08
2022-11-26T11:17:34.037Z,31.05
2022-11-26T11:20:14.738Z,29.02
2022-11-26T11:22:44.241Z,29.52
2022-11-26T11:25:28.332Z,26.80
2022-11-26T11:28:11.793Z,26.58
2022-11-26T11:30:41.443Z,25.95
2022-11-26T11:33:24.685Z,27.35
2022-11-26T11:35:58.438Z,28.40
2022-11-26T11:38:27.971Z,26.52
2022-11-26T11:40:55.789Z,29.63
2022-11-26T11:43:25.196Z,30.08
2022-11-26T11:46:11.569Z,29.35
2022-11-26T11:49:04.892Z,28.55
2022-11-26T11:51:44.407Z,27.52
2022-11-26T11:54:36.269Z,30.83
2022-11-26T11:57:34.940Z,31.50
2022-11-26T12:00:23.339Z,30.55
2022-11-26T12:03:11.795Z,31.42
2022-11-26T12:06:00.044Z,31.50
2022-11-26T12:08:51.850Z,31.52
2022-11-26T12:11:46.897Z,28.75
2022-11-26T12:14:32.340Z,27.60
2022-11-26T12:17:12.131Z,27.95
2022-11-26T12:19:45.190Z,26.73
2022-11-26T12:22:27.044Z,29.00
2022-11-26T12:25:35.132Z,28.23
2022-11-26T12:28:15.330Z,29.65
2022-11-26T12:31:09.592Z,24.33
2022-11-26T12:33:44.802Z,28.45
2022-11-26T12:36:26.962Z,28.73
2022-11-26T12:38:59.332Z,27.73
2022-11-26T12:41:55.935Z,29.98
2022-11-26T12:44:33.956Z,26.15
2022-11-26T12:47:19.540Z,27.90
2022-11-26T12:50:07.938Z,28.58
2022-11-26T12:53:13.801Z,27.60
2022-11-26T12:55:56.619Z,31.63
2022-11-26T12:58:34.914Z,30.73
2022-11-26T13:01:02.144Z,32.00
2022-11-26T13:03:33.334Z,27.95
2022-11-26T13:06:08.238Z,29.88
2022-11-26T13:09:15.374Z,27.20
2022-11-26T13:12:13.130Z,26.13
2022-11-26T13:17:27.168Z,27.30
2022-11-26T13:20:17.595Z,25.83
2022-11-26T13:22:55.594Z,26.00
2022-11-26T13:25:54.275Z,26.20
2022-11-26T13:28:40.245Z,23.13
2022-11-26T13:31:41.194Z,25.80
2022-11-26T13:34:42.552Z,27.73
2022-11-26T13:37:34.730Z,27.38
2022-11-26T13:40:26.462Z,25.27
2022-11-26T13:43:24.670Z,26.02
2022-11-26T13:46:04.887Z,25.17
2022-11-26T13:48:54.151Z,24.85
2022-11-26T13:51:37.354Z,26.73
2022-11-26T13:54:10.940Z,23.35
2022-11-26T13:56:39.898Z,23.48
2022-11-26T13:59:28.123Z,24.80
2022-11-26T14:01:56.418Z,25.63
2022-11-26T14:04:23.925Z,25.48
2022-11-26T14:07:06.127Z,24.33
2022-11-26T14:09:42.651Z,35.10
2022-11-26T14:12:13.919Z,28.00
2022-11-26T14:14:43.093Z,25.52
2022-11-26T14:17:14.827Z,26.05
2022-11-26T14:19:45.028Z,22.63
2022-11-26T14:22:21.295Z,24.50
2022-11-26T14:24:51.498Z,24.83
2022-11-26T14:27:20.063Z,26.58
2022-11-26T14:30:08.593Z,25.55
2022-11-26T14:32:53.203Z,27.58
2022-11-26T14:35:38.364Z,26.90
2022-11-26T14:38:21.570Z,28.10
2022-11-26T14:40:57.862Z,30.83
2022-11-26T14:43:25.205Z,33.28
2022-11-26T14:46:31.981Z,33.20
2022-11-26T14:49:00.552Z,35.75
2022-11-26T14:51:28.727Z,36.50
2022-11-26T14:53:56.943Z,38.75
2022-11-26T14:56:25.865Z,38.20
2022-11-26T14:58:55.734Z,39.38
2022-11-26T15:01:26.428Z,37.33
2022-11-26T15:04:01.066Z,37.75
2022-11-26T15:06:30.089Z,38.40
2022-11-26T15:09:24.490Z,37.08
2022-11-26T15:12:04.875Z,39.72
2022-11-26T15:14:57.286Z,40.22
2022-11-26T15:17:27.661Z,36.05
2022-11-26T15:19:58.556Z,34.35
2022-11-26T15:22:37.720Z,40.47
2022-11-26T15:25:10.922Z,45.17
2022-11-26T15:27:41.006Z,33.20
2022-11-26T15:30:26.344Z,37.05
2022-11-26T15:33:00.839Z,34.47
2022-11-26T15:35:29.233Z,37.40
2022-11-26T15:37:57.652Z,36.30
2022-11-26T15:40:26.642Z,39.00
2022-11-26T15:42:59.036Z,39.55
2022-11-26T15:45:40.491Z,38.60
2022-11-26T15:48:29.823Z,37.85
2022-11-26T15:51:21.896Z,35.72
2022-11-26T15:53:50.623Z,35.25
2022-11-26T15:56:30.793Z,30.35
2022-11-26T15:59:02.939Z,31.35
2022-11-26T16:01:36.819Z,35.28
2022-11-26T16:04:27.170Z,34.63
2022-11-26T16:07:12.747Z,33.50
2022-11-26T16:09:40.380Z,35.47
2022-11-26T16:12:24.883Z,33.85
2022-11-26T16:14:52.393Z,26.20
2022-11-26T16:17:20.959Z,28.92
2022-11-26T16:19:54.696Z,29.55
2022-11-26T16:22:28.374Z,30.42
2022-11-26T16:25:04.701Z,29.77
2022-11-26T16:27:33.727Z,29.08
2022-11-26T16:30:15.048Z,27.13
2022-11-26T16:32:42.224Z,28.75
2022-11-26T16:35:37.661Z,30.52
2022-11-26T16:37:56.987Z,27.92
2022-11-26T16:40:25.073Z,29.58
2022-11-26T16:42:52.359Z,31.92
2022-11-26T16:45:20.248Z,28.67
2022-11-26T16:47:53.523Z,28.98
2022-11-26T16:50:24.604Z,28.98
2022-11-26T16:52:52.633Z,30.98
2022-11-26T16:55:26.318Z,31.23
2022-11-26T16:57:59.878Z,29.33
2022-11-26T17:00:28.194Z,29.50
2022-11-26T17:02:55.541Z,30.02
2022-11-26T17:05:24.702Z,33.53
2022-11-26T17:07:59.562Z,33.55
2022-11-26T17:10:29.500Z,34.63
2022-11-26T17:12:57.783Z,37.70
2022-11-26T17:15:25.427Z,36.92
2022-11-26T17:17:56.298Z,39.83
2022-11-26T17:20:25.652Z,36.10
2022-11-26T17:22:53.177Z,35.58
2022-11-26T17:25:24.199Z,35.83
2022-11-26T17:27:51.514Z,52.42
2022-11-26T17:30:24.177Z,67.07
2022-11-26T17:32:51.644Z,28.80
2022-11-26T17:35:19.390Z,27.40
2022-11-26T17:37:46.714Z,28.58
2022-11-26T17:40:20.299Z,26.45
2022-11-26T17:42:47.924Z,28.70
2022-11-26T17:45:16.432Z,32.80
2022-11-26T17:47:44.360Z,28.65
2022-11-26T17:50:24.897Z,28.48
2022-11-26T17:52:53.268Z,27.63
2022-11-26T17:55:23.169Z,25.30
2022-11-26T17:57:51.022Z,29.80
2022-11-26T18:00:24.234Z,30.45
2022-11-26T18:02:51.642Z,27.80
2022-11-26T18:05:20.211Z,28.42
2022-11-26T18:07:47.676Z,28.10
2022-11-26T18:10:18.014Z,28.27
2022-11-26T18:12:45.585Z,27.30
2022-11-26T18:15:18.433Z,25.77
2022-11-26T18:17:52.986Z,24.27
2022-11-26T18:20:26.335Z,31.80
2022-11-26T18:22:55.888Z,31.00
2022-11-26T18:25:23.879Z,33.05
2022-11-26T18:27:52.719Z,37.58
2022-11-26T18:30:20.808Z,32.63
2022-11-26T18:32:48.553Z,28.77
2022-11-26T18:35:16.639Z,35.38
2022-11-26T18:37:44.097Z,36.75
2022-11-26T18:40:14.840Z,42.38
2022-11-26T18:42:42.406Z,40.42
2022-11-26T18:45:12.200Z,28.60
2022-11-26T18:47:39.500Z,23.63
2022-11-26T18:50:07.642Z,31.45
2022-11-26T18:52:35.154Z,23.95
2022-11-26T18:55:05.409Z,25.83
2022-11-26T18:57:32.622Z,24.48
2022-11-26T19:00:00.035Z,45.72
2022-11-26T19:02:27.374Z,23.85
2022-11-26T19:04:54.897Z,22.73
2022-11-26T19:07:22.147Z,21.75
2022-11-26T19:09:49.788Z,26.77
2022-11-26T19:12:16.966Z,21.13
2022-11-26T19:14:45.800Z,23.20
2022-11-26T19:17:13.150Z,34.25
2022-11-26T19:19:41.044Z,25.38
2022-11-26T19:22:08.777Z,32.38
2022-11-26T19:24:36.338Z,26.17
2022-11-26T19:27:03.486Z,26.33
2022-11-26T19:29:30.980Z,23.15
2022-11-26T19:31:58.186Z,25.83
2022-11-26T19:34:25.668Z,26.65
2022-11-26T19:36:56.680Z,23.45
2022-11-26T19:39:24.523Z,21.15
2022-11-26T19:41:51.826Z,20.30
2022-11-26T19:44:19.516Z,20.13
2022-11-26T19:46:48.263Z,22.83
2022-11-26T19:49:16.042Z,22.23
2022-11-26T19:51:43.414Z,18.98
2022-11-26T19:54:10.949Z,19.13
2022-11-26T19:56:38.114Z,17.98
2022-11-26T19:59:05.671Z,19.10
2022-11-26T20:01:34.221Z,17.98
2022-11-26T20:04:04.514Z,17.67
2022-11-26T20:06:34.069Z,19.15
2022-11-26T20:09:04.254Z,18.38
2022-11-26T20:11:39.819Z,18.67
2022-11-26T20:14:11.503Z,18.10
2022-11-26T20:16:41.633Z,15.88
2022-11-26T20:19:09.964Z,14.43
2022-11-26T20:21:37.955Z,14.38
2022-11-26T20:24:09.681Z,16.48
2022-11-26T20:26:40.322Z,17.73
2022-11-26T20:29:13.839Z,17.67
2022-11-26T20:31:47.646Z,17.38
2022-11-26T20:34:20.810Z,19.60
2022-11-26T20:36:49.181Z,20.20
2022-11-26T20:39:19.252Z,21.63
2022-11-26T20:41:48.007Z,24.10
2022-11-26T20:44:15.396Z,24.35
2022-11-26T20:46:43.355Z,24.30
2022-11-26T20:49:11.747Z,25.05
2022-11-26T20:51:39.531Z,23.38
2022-11-26T20:54:06.861Z,22.30
2022-11-26T20:56:34.347Z,23.70
2022-11-26T20:59:01.727Z,24.25
2022-11-26T21:01:29.817Z,24.02
2022-11-26T21:03:58.208Z,25.95
2022-11-26T21:06:30.331Z,23.73
2022-11-26T21:09:03.868Z,26.08
2022-11-26T21:11:31.653Z,22.23
2022-11-26T21:14:00.085Z,20.40
2022-11-26T21:16:28.899Z,21.17
2022-11-26T21:18:56.751Z,22.88
2022-11-26T21:21:25.688Z,20.20
2022-11-26T21:23:54.042Z,20.08
2022-11-26T21:26:24.562Z,20.75
2022-11-26T21:28:53.266Z,18.33
2022-11-26T21:31:21.429Z,19.75
2022-11-26T21:33:55.135Z,18.40
2022-11-26T21:36:24.041Z,16.42
2022-11-26T21:38:51.568Z,16.38
2022-11-26T21:41:20.282Z,15.20
2022-11-26T21:43:48.477Z,15.05
2022-11-26T21:46:18.953Z,15.25
2022-11-26T21:48:46.383Z,15.77
2022-11-26T21:51:17.108Z,15.70
2022-11-26T21:53:44.875Z,15.82
2022-11-26T21:56:23.862Z,19.77
2022-11-26T21:58:51.706Z,17.48
2022-11-26T22:01:21.201Z,17.10
2022-11-26T22:03:50.691Z,17.05
2022-11-26T22:06:20.322Z,14.48
2022-11-26T22:08:48.074Z,15.65
2022-11-26T22:11:18.688Z,14.93
2022-11-26T22:13:46.154Z,14.10
2022-11-26T22:16:16.472Z,14.75
2022-11-26T22:18:45.530Z,14.55
2022-11-26T22:21:25.153Z,13.73
2022-11-26T22:23:53.067Z,15.55
2022-11-26T22:26:21.528Z,15.13
2022-11-26T22:28:49.804Z,16.95
2022-11-26T22:31:26.817Z,20.00
2022-11-26T22:33:56.673Z,18.50
2022-11-26T22:36:24.645Z,21.05
2022-11-26T22:38:52.593Z,19.60
2022-11-26T22:41:22.933Z,18.83
2022-11-26T22:43:50.336Z,20.17
2022-11-26T22:46:20.469Z,21.33
2022-11-26T22:48:52.645Z,18.05
2022-11-26T22:51:20.940Z,18.60
2022-11-26T22:53:52.284Z,20.67
2022-11-26T22:56:20.409Z,19.85
2022-11-26T22:58:48.387Z,18.88
2022-11-26T23:01:20.253Z,17.02
2022-11-26T23:03:48.192Z,20.25
2022-11-26T23:06:17.877Z,21.58
2022-11-26T23:08:45.715Z,24.58
2022-11-26T23:11:20.941Z,31.95
2022-11-26T23:13:50.235Z,26.42
2022-11-26T23:16:20.461Z,28.67
2022-11-26T23:18:48.186Z,36.78
2022-11-26T23:21:18.385Z,35.15
2022-11-26T23:23:46.149Z,36.42
2022-11-26T23:26:15.651Z,35.10
2022-11-26T23:28:43.069Z,36.35
2022-11-26T23:31:26.145Z,37.22
2022-11-26T23:33:53.643Z,34.90
2022-11-26T23:36:22.362Z,29.95
2022-11-26T23:38:49.875Z,28.08
2022-11-26T23:41:17.473Z,30.35
2022-11-26T23:43:45.594Z,28.65
2022-11-26T23:46:25.176Z,28.15
2022-11-26T23:48:53.234Z,26.13
2022-11-26T23:51:24.613Z,23.17
2022-11-26T23:53:52.847Z,24.20
2022-11-26T23:56:24.651Z,24.85
2022-11-26T23:58:53.586Z,22.92
